Time;durP1;ratioP1;P1;durP2;ratioP2;P2;SDS_P1;SDS_P2;PMS_P1;PMS_P2;Temp;Humidity;BMP_temperature;BMP_pressure;BME280_temperature;BME280_humidity;BME280_pressure;Samples;Min_cycle;Max_cycle;Signal;HPM_P1;HPM_P2
2023/02/16 00:00:19;;;;;;;32.08;24.90;;;;;;;4.48;100.00;102869.13;2071648;28;20240;-65
2023/02/16 00:01:25;;;;;;;31.40;25.10;;;;;;;4.41;100.00;102874.31;2070819;28;20173;-65
2023/02/16 00:02:25;;;;;;;30.48;23.90;;;;;;;4.41;100.00;102882.56;2064609;28;20189;-65
2023/02/16 00:03:26;;;;;;;28.37;23.70;;;;;;;4.27;100.00;102881.25;2064395;28;20170;-65
2023/02/16 00:04:29;;;;;;;30.97;24.07;;;;;;;4.20;100.00;102883.72;2065059;28;20182;-65
2023/02/16 00:05:33;;;;;;;29.67;24.08;;;;;;;3.87;100.00;102844.41;2071565;28;20189;-65
2023/02/16 00:06:34;;;;;;;28.42;23.58;;;;;;;4.20;100.00;102881.00;2072310;28;20670;-65
2023/02/16 00:07:34;;;;;;;28.63;22.97;;;;;;;4.25;100.00;102878.81;2072659;28;20599;-65
2023/02/16 00:08:34;;;;;;;28.83;23.00;;;;;;;4.19;100.00;102879.34;2067764;28;20581;-65
2023/02/16 00:09:35;;;;;;;29.93;22.23;;;;;;;4.13;100.00;102887.00;2066120;28;20198;-65
2023/02/16 00:10:37;;;;;;;29.43;23.67;;;;;;;3.32;100.00;102765.13;2066647;28;20174;-65
2023/02/16 00:14:17;;;;;;;27.33;22.13;;;;;;;4.19;100.00;102884.84;2071412;28;20193;-65
2023/02/16 00:15:19;;;;;;;28.13;22.52;;;;;;;4.20;100.00;102879.03;2071675;28;20207;-65
2023/02/16 00:16:22;;;;;;;26.98;21.85;;;;;;;3.39;100.00;102753.63;2072492;28;20174;-65
2023/02/16 00:17:22;;;;;;;28.50;22.40;;;;;;;4.09;100.00;102880.56;2071900;28;20181;-65
2023/02/16 00:18:23;;;;;;;27.00;22.30;;;;;;;4.04;100.00;102883.50;2071443;28;20296;-65
2023/02/16 00:19:28;;;;;;;27.70;22.07;;;;;;;4.09;100.00;102879.75;2064662;28;20182;-65
2023/02/16 00:20:31;;;;;;;27.75;22.13;;;;;;;4.06;100.00;102883.19;2064865;28;20171;-65
2023/02/16 00:21:32;;;;;;;28.50;22.15;;;;;;;4.01;100.00;102870.44;2071144;28;20189;-65
2023/02/16 00:22:32;;;;;;;28.83;22.13;;;;;;;4.02;100.00;102876.75;2071888;28;20273;-65
2023/02/16 00:23:32;;;;;;;28.40;22.60;;;;;;;4.07;100.00;102879.31;2072370;28;20558;-65
2023/02/16 00:24:33;;;;;;;28.23;21.80;;;;;;;4.05;100.00;102884.31;2076852;28;20229;-65
2023/02/16 00:25:35;;;;;;;29.23;22.73;;;;;;;4.05;100.00;102878.84;2076759;28;20229;-65
2023/02/16 00:26:36;;;;;;;27.75;22.20;;;;;;;4.00;100.00;102879.81;2072198;28;20417;-66
2023/02/16 00:27:36;;;;;;;27.97;22.10;;;;;;;4.07;100.00;102879.31;2070399;28;20659;-65
2023/02/16 00:28:37;;;;;;;26.07;21.43;;;;;;;4.08;100.00;102881.72;2064525;28;20174;-65
2023/02/16 00:29:37;;;;;;;25.80;22.07;;;;;;;3.54;100.00;102778.50;2072854;28;20217;-65
2023/02/16 00:30:38;;;;;;;27.93;22.23;;;;;;;4.21;100.00;102877.09;2072654;28;20218;-65
2023/02/16 00:31:38;;;;;;;27.07;22.43;;;;;;;4.18;100.00;102861.28;2071182;28;20705;-66
2023/02/16 00:32:39;;;;;;;27.93;21.83;;;;;;;3.20;100.00;102714.91;2066970;28;20240;-66
2023/02/16 00:33:39;;;;;;;27.33;22.10;;;;;;;4.31;100.00;102876.69;2068212;28;20444;-65
2023/02/16 00:34:40;;;;;;;30.30;22.67;;;;;;;4.36;100.00;102879.25;2072461;28;20220;-65
2023/02/16 00:35:41;;;;;;;27.90;21.83;;;;;;;4.40;100.00;102885.63;2071479;28;20194;-65
2023/02/16 00:36:41;;;;;;;25.47;21.37;;;;;;;4.40;100.00;102877.41;2072247;28;20368;-65
2023/02/16 00:37:42;;;;;;;30.80;22.13;;;;;;;4.42;100.00;102877.88;2072180;28;20213;-65
2023/02/16 00:38:42;;;;;;;27.30;21.47;;;;;;;4.46;100.00;102878.81;2071277;28;20221;-66
2023/02/16 00:39:43;;;;;;;27.37;21.83;;;;;;;4.49;100.00;102883.63;2071595;28;20186;-65
2023/02/16 00:40:44;;;;;;;25.85;22.13;;;;;;;4.51;100.00;102881.38;2071762;28;20202;-65
2023/02/16 00:41:52;;;;;;;28.33;20.83;;;;;;;4.03;100.00;102799.59;2071876;28;20200;-65
2023/02/16 00:42:53;;;;;;;27.05;21.40;;;;;;;4.52;100.00;102871.97;2071919;28;20201;-65
2023/02/16 00:43:53;;;;;;;27.40;22.03;;;;;;;4.57;100.00;102877.25;2072484;28;20202;-65
2023/02/16 00:44:56;;;;;;;25.73;21.90;;;;;;;4.59;100.00;102877.72;2070212;28;20175;-65
2023/02/16 00:45:56;;;;;;;28.10;22.30;;;;;;;4.61;100.00;102878.19;2063545;28;20208;-65
2023/02/16 00:47:01;;;;;;;28.07;21.83;;;;;;;4.64;100.00;102878.31;2066448;28;20179;-66
2023/02/16 00:48:01;;;;;;;25.42;21.25;;;;;;;4.67;100.00;102883.13;2064114;28;20182;-65
2023/02/16 00:49:02;;;;;;;26.40;22.07;;;;;;;4.70;100.00;102876.16;2071710;28;20679;-65
2023/02/16 00:50:17;;;;;;;26.45;21.40;;;;;;;4.69;100.00;102877.31;2071908;28;20186;-66
2023/02/16 00:51:17;;;;;;;24.75;21.05;;;;;;;4.71;100.00;102880.50;2071759;28;20203;-65
2023/02/16 00:52:30;;;;;;;23.67;19.97;;;;;;;4.77;100.00;102879.97;2070908;28;20225;-65
2023/02/16 00:53:30;;;;;;;28.60;22.42;;;;;;;4.73;100.00;102880.97;2071503;28;20698;-66
2023/02/16 00:54:30;;;;;;;27.17;22.17;;;;;;;4.57;100.00;102860.78;2072087;28;20572;-65
2023/02/16 00:55:34;;;;;;;25.47;21.00;;;;;;;4.64;100.00;102877.50;2070263;28;20205;-65
2023/02/16 00:56:35;;;;;;;27.85;21.88;;;;;;;4.64;100.00;102874.75;2071672;28;20715;-65
2023/02/16 00:57:41;;;;;;;27.70;21.43;;;;;;;3.75;100.00;102734.66;2071649;28;20623;-65
2023/02/16 00:58:41;;;;;;;27.23;22.70;;;;;;;4.55;100.00;102869.34;2069969;28;20185;-65
2023/02/16 00:59:42;;;;;;;33.70;22.87;;;;;;;4.57;100.00;102878.06;2064149;28;20187;-66
2023/02/16 01:00:49;;;;;;;30.87;23.07;;;;;;;4.50;100.00;102866.81;2064684;28;20188;-65
2023/02/16 01:01:50;;;;;;;26.73;21.63;;;;;;;3.14;100.00;102640.31;2064322;28;20203;-65
2023/02/16 01:02:54;;;;;;;27.70;22.50;;;;;;;4.63;100.00;102881.41;2071991;28;20280;-65
2023/02/16 01:03:54;;;;;;;27.52;22.45;;;;;;;4.64;100.00;102877.50;2071545;28;20241;-65
2023/02/16 01:04:54;;;;;;;26.17;22.00;;;;;;;4.54;100.00;102876.00;2073330;28;20683;-66
2023/02/16 01:11:14;;;;;;;26.58;22.02;;;;;;;4.49;100.00;102872.66;2065537;28;20175;-65
2023/02/16 01:12:18;;;;;;;27.37;22.67;;;;;;;4.51;100.00;102892.34;2068807;28;20189;-65
2023/02/16 01:13:18;;;;;;;26.15;21.95;;;;;;;4.52;100.00;102870.03;2074168;28;20275;-65
2023/02/16 01:14:19;;;;;;;25.60;21.43;;;;;;;4.54;100.00;102869.69;2073303;28;20181;-65
2023/02/16 01:15:23;;;;;;;26.93;21.43;;;;;;;4.53;100.00;102871.66;2073163;28;20289;-65
2023/02/16 01:16:50;;;;;;;26.30;21.92;;;;;;;4.56;100.00;102870.16;2073585;28;20257;-65
2023/02/16 01:17:51;;;;;;;24.33;21.08;;;;;;;4.61;100.00;102873.50;2073954;28;20241;-65
2023/02/16 01:18:52;;;;;;;25.57;21.17;;;;;;;4.64;100.00;102875.56;2066588;28;20205;-65
2023/02/16 01:19:53;;;;;;;27.13;21.45;;;;;;;4.59;100.00;102866.72;2072037;28;20284;-66
2023/02/16 01:20:53;;;;;;;27.77;22.10;;;;;;;4.66;100.00;102870.53;2073664;28;20195;-65
2023/02/16 01:21:54;;;;;;;26.03;21.57;;;;;;;4.64;100.00;102861.03;2073575;28;20209;-65
2023/02/16 01:22:54;;;;;;;27.73;22.10;;;;;;;4.72;100.00;102863.69;2073197;28;20228;-65
2023/02/16 01:23:55;;;;;;;27.33;22.60;;;;;;;4.70;100.00;102865.16;2073722;28;20188;-65
2023/02/16 01:24:55;;;;;;;26.30;21.77;;;;;;;4.71;100.00;102864.84;2072980;28;20502;-65
2023/02/16 01:25:56;;;;;;;26.70;22.20;;;;;;;4.58;100.00;102849.47;2073020;28;20548;-65
2023/02/16 01:26:56;;;;;;;27.13;22.30;;;;;;;4.56;100.00;102840.75;2066115;28;20285;-65
2023/02/16 01:27:56;;;;;;;28.97;22.83;;;;;;;4.65;100.00;102860.69;2072837;28;20250;-65
2023/02/16 01:28:57;;;;;;;29.33;22.53;;;;;;;4.65;100.00;102859.88;2068316;28;20196;-65
2023/02/16 01:29:57;;;;;;;26.60;22.23;;;;;;;4.64;100.00;102864.59;2068244;28;20238;-66
2023/02/16 01:30:58;;;;;;;29.67;22.50;;;;;;;4.63;100.00;102859.44;2073044;28;20185;-65
2023/02/16 01:31:58;;;;;;;26.83;22.57;;;;;;;3.74;100.00;102722.09;2066759;28;20181;-65
2023/02/16 01:32:58;;;;;;;28.27;23.07;;;;;;;4.68;100.00;102861.97;2072812;28;20191;-66
2023/02/16 01:33:59;;;;;;;26.33;21.90;;;;;;;3.66;100.00;102692.78;2073701;28;20659;-65
2023/02/16 01:34:59;;;;;;;26.37;22.47;;;;;;;4.73;100.00;102864.50;2072056;28;20220;-65
2023/02/16 01:36:00;;;;;;;28.13;22.47;;;;;;;4.63;100.00;102853.94;2072947;28;20229;-65
2023/02/16 01:37:00;;;;;;;26.47;21.67;;;;;;;4.70;100.00;102862.41;2073523;28;20190;-65
2023/02/16 01:38:01;;;;;;;27.90;22.17;;;;;;;4.70;100.00;102865.97;2073543;28;20710;-66
2023/02/16 01:39:01;;;;;;;27.00;22.37;;;;;;;4.30;100.00;102800.94;2072280;28;20221;-66
2023/02/16 01:40:03;;;;;;;24.57;21.33;;;;;;;4.69;100.00;102863.56;2071700;28;20185;-65
2023/02/16 01:41:07;;;;;;;27.55;21.63;;;;;;;4.71;100.00;102861.28;2066192;28;20215;-65
2023/02/16 01:42:30;;;;;;;28.35;23.13;;;;;;;4.70;100.00;102859.66;2073690;28;20626;-65
2023/02/16 01:43:49;;;;;;;28.17;21.98;;;;;;;4.60;100.00;102858.16;2073120;28;20175;-65
2023/02/16 01:45:08;;;;;;;27.98;21.75;;;;;;;4.62;100.00;102857.84;2073678;28;20552;-65
2023/02/16 01:46:16;;;;;;;26.00;20.88;;;;;;;4.60;100.00;102862.84;2072230;28;20663;-66
2023/02/16 01:47:17;;;;;;;27.73;22.13;;;;;;;4.57;100.00;102858.81;2073315;28;20182;-65
2023/02/16 01:48:25;;;;;;;26.47;22.50;;;;;;;4.57;100.00;102863.53;2073398;28;20668;-65
2023/02/16 01:49:26;;;;;;;26.20;22.02;;;;;;;4.61;100.00;102861.72;2073570;28;20563;-66
2023/02/16 01:50:34;;;;;;;27.35;21.25;;;;;;;4.61;100.00;102862.50;2073689;28;20722;-65
2023/02/16 01:51:59;;;;;;;28.88;21.90;;;;;;;4.61;100.00;102862.50;2072650;28;20190;-66
2023/02/16 01:53:27;;;;;;;27.38;22.55;;;;;;;4.50;100.00;102852.28;2073323;28;20190;-65
2023/02/16 01:54:31;;;;;;;27.98;22.08;;;;;;;4.54;100.00;102858.72;2072975;28;20682;-65
2023/02/16 01:55:36;;;;;;;27.13;22.48;;;;;;;4.54;100.00;102862.25;2072784;28;20632;-65
2023/02/16 01:57:03;;;;;;;26.83;21.73;;;;;;;4.17;100.00;102802.06;2073264;28;20615;-65
2023/02/16 01:58:18;;;;;;;26.63;21.20;;;;;;;4.59;100.00;102864.81;2065302;28;20199;-65
2023/02/16 01:59:38;;;;;;;28.38;22.70;;;;;;;4.57;100.00;102867.06;2064704;28;20175;-65
2023/02/16 02:00:47;;;;;;;27.67;22.17;;;;;;;4.59;100.00;102867.53;2065140;28;20179;-65
2023/02/16 02:01:56;;;;;;;27.35;22.55;;;;;;;4.58;100.00;102865.94;2071924;28;20291;-65
2023/02/16 02:05:57;;;;;;;26.73;21.80;;;;;;;4.57;100.00;102858.03;2071766;28;20285;-65
2023/02/16 02:06:58;;;;;;;26.50;22.10;;;;;;;4.50;100.00;102860.50;2067585;28;20191;-65
2023/02/16 02:08:20;;;;;;;29.60;23.37;;;;;;;4.55;100.00;102866.63;2070616;28;20191;-66
2023/02/16 02:10:00;;;;;;;28.63;22.70;;;;;;;4.57;100.00;102855.28;2067039;28;20206;-65
2023/02/16 02:11:15;;;;;;;28.25;22.27;;;;;;;4.52;100.00;102867.28;2071053;28;20185;-65
2023/02/16 02:12:19;;;;;;;27.65;23.08;;;;;;;4.52;100.00;102867.28;2072266;28;20159;-65
2023/02/16 02:13:24;;;;;;;26.60;21.80;;;;;;;4.53;100.00;102859.84;2072666;28;20708;-65
2023/02/16 02:14:31;;;;;;;29.10;23.52;;;;;;;4.04;100.00;102800.38;2072641;28;20251;-65
2023/02/16 02:15:33;;;;;;;24.38;20.20;;;;;;;4.51;100.00;102857.44;2069710;28;20186;-65
2023/02/16 02:16:34;;;;;;;28.48;22.45;;;;;;;3.92;100.00;102772.91;2073368;28;20666;-65
2023/02/16 02:17:36;;;;;;;30.10;24.53;;;;;;;3.49;100.00;102707.44;2066665;28;20639;-65
2023/02/16 02:18:37;;;;;;;28.00;22.63;;;;;;;4.46;100.00;102867.84;2072921;28;20574;-65
2023/02/16 02:19:47;;;;;;;26.20;21.73;;;;;;;4.46;100.00;102859.59;2072158;28;20288;-65
2023/02/16 02:24:50;;;;;;;27.85;22.00;;;;;;;4.31;100.00;102860.22;2071044;28;20191;-66
2023/02/16 02:26:09;;;;;;;27.15;21.10;;;;;;;4.29;100.00;102859.75;2064832;28;20176;-65
2023/02/16 02:27:23;;;;;;;24.63;19.95;;;;;;;4.17;100.00;102845.97;2070589;28;20682;-65
2023/02/16 02:28:40;;;;;;;29.17;22.52;;;;;;;4.18;100.00;102856.63;2067234;28;20667;-65
2023/02/16 02:29:43;;;;;;;30.92;23.05;;;;;;;4.16;100.00;102855.34;2072702;28;20285;-65
2023/02/16 02:30:52;;;;;;;30.58;23.33;;;;;;;4.17;100.00;102855.00;2073061;28;20194;-65
2023/02/16 02:32:04;;;;;;;25.60;20.92;;;;;;;4.20;100.00;102857.06;2072459;28;20243;-65
2023/02/16 02:33:38;;;;;;;26.83;21.80;;;;;;;4.18;100.00;102851.13;2068904;28;20789;-65
2023/02/16 02:34:44;;;;;;;26.65;20.88;;;;;;;4.17;100.00;102854.19;2072937;28;20203;-65
2023/02/16 02:36:07;;;;;;;28.40;23.02;;;;;;;4.16;100.00;102855.34;2072186;28;20217;-65
2023/02/16 02:37:18;;;;;;;29.05;22.45;;;;;;;4.12;100.00;102852.47;2064941;28;20225;-65
2023/02/16 02:38:49;;;;;;;28.20;22.55;;;;;;;4.13;100.00;102854.06;2071387;28;20203;-65
2023/02/16 02:40:21;;;;;;;29.67;22.75;;;;;;;4.09;100.00;102846.81;2067562;28;20478;-65
2023/02/16 02:43:21;;;;;;;28.33;22.42;;;;;;;4.01;100.00;102848.50;2068272;28;20176;-65
2023/02/16 02:44:25;;;;;;;28.80;22.02;;;;;;;3.97;100.00;102842.09;2072924;28;20165;-65
2023/02/16 02:45:32;;;;;;;27.08;22.00;;;;;;;3.96;100.00;102845.16;2071724;28;20192;-65
2023/02/16 02:46:35;;;;;;;29.20;22.95;;;;;;;3.88;100.00;102837.78;2072511;28;20189;-65
2023/02/16 02:47:42;;;;;;;28.65;23.40;;;;;;;3.94;100.00;102852.91;2072402;28;20269;-65
2023/02/16 02:48:42;;;;;;;26.75;22.20;;;;;;;3.97;100.00;102844.03;2072917;28;20699;-65
2023/02/16 02:49:53;;;;;;;25.77;21.50;;;;;;;3.96;100.00;102850.66;2081347;28;20631;-65
2023/02/16 02:52:22;;;;;;;26.83;21.55;;;;;;;3.88;100.00;102851.50;2066781;28;20171;-65
2023/02/16 02:53:22;;;;;;;26.87;22.43;;;;;;;3.85;100.00;102846.72;2073657;28;20669;-65
2023/02/16 03:00:42;;;;;;;29.40;22.25;;;;;;;3.62;100.00;102853.63;2070958;28;20193;-65
2023/02/16 03:01:49;;;;;;;28.60;21.65;;;;;;;3.62;100.00;102853.63;2068829;28;20197;-65
2023/02/16 03:02:55;;;;;;;29.00;21.90;;;;;;;3.62;100.00;102864.59;2068359;28;20709;-66
2023/02/16 03:03:57;;;;;;;27.45;22.90;;;;;;;3.55;100.00;102854.13;2070097;28;20193;-66
2023/02/16 03:05:01;;;;;;;30.17;24.17;;;;;;;3.57;100.00;102856.53;2070232;28;20284;-65
2023/02/16 03:06:26;;;;;;;29.42;23.48;;;;;;;3.58;100.00;102860.88;2072052;28;20198;-65
2023/02/16 03:07:45;;;;;;;29.15;22.27;;;;;;;3.59;100.00;102855.09;2072114;28;20265;-66
2023/02/16 03:08:53;;;;;;;27.98;22.30;;;;;;;3.57;100.00;102851.06;2068712;28;20184;-65
2023/02/16 03:12:43;;;;;;;28.40;22.17;;;;;;;3.55;100.00;102851.38;2072535;28;20269;-65
2023/02/16 03:12:44;;;;;;;29.90;22.65;;;;;;;3.47;100.00;102851.44;2065281;28;20246;-65
2023/02/16 03:13:49;;;;;;;31.05;24.30;;;;;;;3.45;100.00;102853.72;2069856;28;20188;-65
2023/02/16 03:14:54;;;;;;;27.60;22.95;;;;;;;3.39;100.00;102855.03;2072572;28;20570;-65
2023/02/16 03:15:56;;;;;;;32.92;24.23;;;;;;;3.44;100.00;102857.59;2072143;28;20195;-65
2023/02/16 03:30:37;;;;;;;31.60;24.55;;;;;;;3.32;100.00;102857.47;2072028;28;20198;-65
2023/02/16 03:31:40;;;;;;;35.67;26.80;;;;;;;3.32;100.00;102852.00;2072010;28;20197;-65
2023/02/16 03:32:40;;;;;;;34.65;25.73;;;;;;;3.35;100.00;102854.91;2068730;28;20176;-65
2023/02/16 03:33:42;;;;;;;30.13;25.23;;;;;;;3.35;100.00;102849.44;2071307;28;20224;-65
2023/02/16 03:34:42;;;;;;;30.70;24.75;;;;;;;3.16;100.00;102832.59;2071061;28;20176;-65
2023/02/16 03:35:44;;;;;;;30.77;25.07;;;;;;;3.35;100.00;102849.44;2064610;28;20192;-65
2023/02/16 03:36:49;;;;;;;30.75;25.25;;;;;;;3.37;100.00;102849.06;2072677;28;20172;-65
2023/02/16 03:37:49;;;;;;;31.20;25.13;;;;;;;3.39;100.00;102850.34;2072979;28;20278;-65
2023/02/16 03:38:51;;;;;;;33.43;24.37;;;;;;;3.42;100.00;102848.88;2072656;28;20203;-65
2023/02/16 03:41:11;;;;;;;32.60;25.67;;;;;;;3.38;100.00;102848.75;2071794;28;20200;-65
2023/02/16 03:42:11;;;;;;;31.07;24.77;;;;;;;2.75;100.00;102743.97;2072916;28;20191;-66
2023/02/16 03:43:11;;;;;;;30.70;24.80;;;;;;;3.36;100.00;102844.72;2069304;28;20199;-66
2023/02/16 03:44:12;;;;;;;31.37;24.87;;;;;;;3.37;100.00;102852.63;2072408;28;20225;-65
2023/02/16 03:45:12;;;;;;;34.70;25.53;;;;;;;3.39;100.00;102846.81;2071775;28;20260;-65
2023/02/16 03:46:13;;;;;;;33.67;26.93;;;;;;;3.40;100.00;102842.94;2072382;28;20179;-65
2023/02/16 03:47:14;;;;;;;30.47;24.30;;;;;;;3.39;100.00;102842.13;2072279;28;20651;-66
2023/02/16 03:48:14;;;;;;;31.63;25.53;;;;;;;3.43;100.00;102842.25;2072744;28;20557;-65
2023/02/16 03:49:16;;;;;;;31.20;25.77;;;;;;;3.42;100.00;102843.41;2065776;28;20185;-65
2023/02/16 03:50:16;;;;;;;33.92;25.38;;;;;;;3.45;100.00;102849.03;2072766;28;20635;-66
2023/02/16 03:51:17;;;;;;;32.33;25.20;;;;;;;3.25;100.00;102811.44;2072113;28;20286;-65
2023/02/16 03:52:17;;;;;;;29.60;23.93;;;;;;;3.01;100.00;102775.59;2072586;28;20226;-66
2023/02/16 03:53:18;;;;;;;32.10;26.83;;;;;;;3.33;100.00;102828.97;2072838;28;20198;-65
2023/02/16 03:54:18;;;;;;;33.47;25.90;;;;;;;3.47;100.00;102844.03;2072336;28;20224;-65
2023/02/16 03:55:19;;;;;;;32.57;25.80;;;;;;;3.44;100.00;102854.88;2071660;28;20176;-66
2023/02/16 03:56:19;;;;;;;31.23;24.77;;;;;;;3.43;100.00;102851.31;2071769;28;20175;-66
2023/02/16 03:57:19;;;;;;;30.33;24.40;;;;;;;3.43;100.00;102853.22;2064170;28;20778;-65
2023/02/16 03:58:22;;;;;;;29.57;23.87;;;;;;;3.41;100.00;102859.06;2072233;28;20211;-66
2023/02/16 03:59:23;;;;;;;30.20;24.88;;;;;;;3.23;100.00;102829.34;2072356;28;20709;-65
2023/02/16 04:00:23;;;;;;;30.53;24.90;;;;;;;3.37;100.00;102858.13;2066929;28;20593;-66
2023/02/16 04:01:24;;;;;;;31.03;25.93;;;;;;;3.18;100.00;102830.31;2068468;28;20643;-66
2023/02/16 04:02:26;;;;;;;31.60;26.80;;;;;;;3.38;100.00;102883.59;2068348;28;20193;-65
2023/02/16 04:03:27;;;;;;;35.72;26.55;;;;;;;3.41;100.00;102861.81;2070009;28;20284;-66
2023/02/16 04:04:27;;;;;;;33.80;27.07;;;;;;;3.41;100.00;102861.81;2070647;28;20185;-65
2023/02/16 04:05:28;;;;;;;30.43;25.13;;;;;;;2.92;100.00;102787.75;2063059;28;20684;-66
2023/02/16 04:06:28;;;;;;;30.27;24.17;;;;;;;3.41;100.00;102864.53;2073120;28;20178;-66
2023/02/16 04:07:29;;;;;;;29.50;23.87;;;;;;;3.30;100.00;102844.13;2067949;28;20220;-65
2023/02/16 04:08:29;;;;;;;31.17;24.70;;;;;;;3.37;100.00;102862.78;2072684;28;20227;-65
2023/02/16 04:09:30;;;;;;;29.80;24.30;;;;;;;3.37;100.00;102863.59;2072601;28;20191;-66
2023/02/16 04:10:30;;;;;;;30.20;24.87;;;;;;;3.38;100.00;102867.16;2068348;28;20200;-65
2023/02/16 04:12:50;;;;;;;30.08;23.60;;;;;;;3.22;100.00;102842.22;2068314;28;20205;-66
2023/02/16 04:13:50;;;;;;;28.83;23.60;;;;;;;3.33;100.00;102862.63;2072343;28;20193;-66
2023/02/16 04:14:51;;;;;;;27.40;22.43;;;;;;;3.31;100.00;102853.94;2072611;28;20171;-65
2023/02/16 04:15:51;;;;;;;31.10;23.23;;;;;;;3.31;100.00;102853.94;2071770;28;20176;-65
2023/02/16 04:16:52;;;;;;;31.70;25.83;;;;;;;2.77;100.00;102775.38;2072567;28;20182;-65
2023/02/16 04:17:53;;;;;;;31.77;25.10;;;;;;;3.25;100.00;102854.47;2064402;28;20189;-65
2023/02/16 04:18:53;;;;;;;29.83;24.67;;;;;;;3.25;100.00;102865.41;2071241;28;20180;-65
2023/02/16 04:19:53;;;;;;;32.67;25.50;;;;;;;2.81;100.00;102791.94;2066664;28;20203;-65
2023/02/16 04:20:54;;;;;;;30.80;25.30;;;;;;;3.23;100.00;102864.97;2068584;28;20203;-65
2023/02/16 04:21:54;;;;;;;32.03;26.57;;;;;;;3.22;100.00;102868.81;2068500;28;20188;-66
2023/02/16 04:22:55;;;;;;;31.57;25.43;;;;;;;3.20;100.00;102871.09;2066462;28;20185;-65
2023/02/16 04:23:55;;;;;;;34.63;25.90;;;;;;;3.13;100.00;102846.13;2072347;28;20305;-66
2023/02/16 04:24:56;;;;;;;30.27;24.90;;;;;;;3.16;100.00;102859.97;2072320;28;20611;-65
2023/02/16 04:25:56;;;;;;;31.37;24.83;;;;;;;3.17;100.00;102866.25;2071170;28;20176;-65
2023/02/16 04:26:56;;;;;;;33.10;26.03;;;;;;;3.09;100.00;102862.41;2072525;28;20274;-65
2023/02/16 04:27:57;;;;;;;31.50;25.17;;;;;;;3.13;100.00;102868.84;2072554;28;20669;-65
2023/02/16 04:28:57;;;;;;;30.27;25.27;;;;;;;3.11;100.00;102867.56;2066742;28;20199;-65
2023/02/16 04:29:58;;;;;;;32.13;25.03;;;;;;;3.09;100.00;102869.84;2067936;28;20667;-66
2023/02/16 04:30:58;;;;;;;30.63;23.93;;;;;;;3.07;100.00;102870.16;2072391;28;20325;-65
2023/02/16 04:31:59;;;;;;;30.27;24.27;;;;;;;2.92;100.00;102850.72;2071816;28;20180;-65
2023/02/16 04:32:59;;;;;;;31.87;25.13;;;;;;;2.99;100.00;102867.47;2071935;28;20296;-65
2023/02/16 04:33:59;;;;;;;29.17;24.67;;;;;;;2.84;100.00;102846.06;2070448;28;20802;-65
2023/02/16 04:35:00;;;;;;;30.37;24.43;;;;;;;2.97;100.00;102865.03;2071863;28;20195;-65
2023/02/16 04:36:00;;;;;;;28.03;23.30;;;;;;;2.93;100.00;102860.56;2065664;28;20231;-66
2023/02/16 04:37:01;;;;;;;29.93;23.90;;;;;;;2.94;100.00;102870.38;2069242;28;20847;-65
2023/02/16 04:38:02;;;;;;;28.83;24.08;;;;;;;2.92;100.00;102864.44;2068025;28;20203;-65
2023/02/16 04:39:03;;;;;;;30.80;24.00;;;;;;;2.90;100.00;102870.22;2069510;28;20193;-65
2023/02/16 04:40:05;;;;;;;28.73;23.13;;;;;;;2.36;100.00;102791.59;2070292;28;20183;-65
2023/02/16 04:41:05;;;;;;;32.20;24.90;;;;;;;2.46;100.00;102801.41;2065149;28;20736;-65
2023/02/16 04:42:06;;;;;;;29.77;24.67;;;;;;;2.71;100.00;102847.88;2072090;28;20568;-65
2023/02/16 04:43:06;;;;;;;28.90;23.90;;;;;;;2.68;100.00;102845.00;2064960;28;20174;-65
2023/02/16 04:44:07;;;;;;;32.13;25.50;;;;;;;2.82;100.00;102881.22;2071301;28;20178;-65
2023/02/16 04:45:09;;;;;;;30.03;24.40;;;;;;;2.77;100.00;102879.44;2071944;28;20243;-65
2023/02/16 04:46:09;;;;;;;30.05;24.77;;;;;;;2.70;100.00;102868.19;2072194;28;20669;-65
2023/02/16 04:47:10;;;;;;;31.30;24.47;;;;;;;2.78;100.00;102881.03;2072315;28;20568;-66
2023/02/16 04:48:10;;;;;;;31.37;25.03;;;;;;;2.74;100.00;102871.88;2072281;28;20188;-65
2023/02/16 04:49:10;;;;;;;35.20;25.47;;;;;;;2.74;100.00;102865.59;2071924;28;20185;-65
2023/02/16 04:50:12;;;;;;;32.50;26.00;;;;;;;2.56;100.00;102842.91;2072016;28;20654;-65
2023/02/16 04:51:12;;;;;;;34.25;25.73;;;;;;;2.74;100.00;102871.88;2072110;28;20179;-65
2023/02/16 04:52:13;;;;;;;31.10;25.47;;;;;;;2.73;100.00;102870.25;2072038;28;20191;-65
2023/02/16 04:53:13;;;;;;;34.00;26.57;;;;;;;2.74;100.00;102882.84;2072212;28;20221;-65
2023/02/16 04:54:14;;;;;;;31.90;26.23;;;;;;;2.73;100.00;102880.41;2072115;28;20257;-66
2023/02/16 04:55:14;;;;;;;32.80;25.40;;;;;;;2.71;100.00;102872.50;2071535;28;20218;-65
2023/02/16 04:56:15;;;;;;;33.13;27.00;;;;;;;2.65;100.00;102867.53;2071809;28;20191;-65
2023/02/16 04:57:16;;;;;;;32.03;26.00;;;;;;;2.71;100.00;102879.91;2071322;28;20230;-65
2023/02/16 04:58:17;;;;;;;31.75;23.92;;;;;;;2.68;100.00;102878.63;2065689;28;20228;-65
2023/02/16 04:59:17;;;;;;;29.90;24.03;;;;;;;2.68;100.00;102880.59;2071821;28;20180;-65
2023/02/16 05:00:18;;;;;;;28.77;24.00;;;;;;;2.58;100.00;102867.22;2072299;28;20180;-65
2023/02/16 05:01:23;;;;;;;29.42;23.25;;;;;;;2.61;100.00;102881.06;2071417;28;20199;-65
2023/02/16 05:02:24;;;;;;;29.67;23.60;;;;;;;1.92;100.00;102770.09;2064474;28;20770;-65
2023/02/16 05:03:24;;;;;;;29.97;23.70;;;;;;;2.14;100.00;102808.19;2063567;28;20586;-65
2023/02/16 05:04:25;;;;;;;30.53;23.70;;;;;;;2.59;100.00;102880.59;2071970;28;20214;-65
2023/02/16 05:05:25;;;;;;;28.30;23.10;;;;;;;2.44;100.00;102859.19;2075018;28;20576;-65
2023/02/16 05:06:26;;;;;;;30.33;23.13;;;;;;;2.56;100.00;102883.19;2072234;28;20200;-65
2023/02/16 05:07:26;;;;;;;29.20;23.30;;;;;;;2.21;100.00;102827.66;2072076;28;20236;-65
2023/02/16 05:08:26;;;;;;;30.37;23.90;;;;;;;2.51;100.00;102881.41;2072379;28;20171;-65
2023/02/16 05:09:27;;;;;;;32.03;24.53;;;;;;;2.47;100.00;102883.16;2068465;28;20601;-65
2023/02/16 05:10:28;;;;;;;33.47;25.60;;;;;;;2.47;100.00;102879.66;2067389;28;20203;-65
2023/02/16 05:15:25;;;;;;;31.75;24.85;;;;;;;2.47;100.00;102885.13;2070625;28;20206;-65
2023/02/16 05:16:25;;;;;;;32.50;25.13;;;;;;;2.46;100.00;102883.50;2072393;28;20234;-65
2023/02/16 05:17:26;;;;;;;31.77;25.27;;;;;;;2.49;100.00;102891.88;2071835;28;20206;-65
2023/02/16 05:18:27;;;;;;;30.55;24.98;;;;;;;2.48;100.00;102879.31;2071906;28;20606;-65
2023/02/16 05:19:27;;;;;;;31.90;25.33;;;;;;;2.48;100.00;102884.81;2071642;28;20275;-65
2023/02/16 05:21:47;;;;;;;28.25;22.50;;;;;;;2.49;100.00;102878.19;2066297;28;20175;-65
2023/02/16 05:22:47;;;;;;;31.57;23.50;;;;;;;2.47;100.00;102887.84;2072039;28;20179;-65
2023/02/16 05:23:47;;;;;;;32.20;24.73;;;;;;;2.47;100.00;102885.13;2072214;28;20190;-65
2023/02/16 05:24:48;;;;;;;29.87;24.77;;;;;;;2.44;100.00;102883.84;2072307;28;20197;-65
2023/02/16 05:25:49;;;;;;;31.77;24.93;;;;;;;2.42;100.00;102883.34;2070571;28;20744;-65
2023/02/16 05:26:49;;;;;;;31.53;25.83;;;;;;;1.98;100.00;102809.81;2067299;28;20441;-65
2023/02/16 05:27:50;;;;;;;32.97;25.80;;;;;;;2.47;100.00;102890.59;2067553;28;20254;-65
2023/02/16 05:28:50;;;;;;;30.93;25.27;;;;;;;2.05;100.00;102820.28;2072012;28;20192;-65
2023/02/16 05:29:51;;;;;;;35.77;25.93;;;;;;;2.45;100.00;102887.34;2071497;28;20179;-65
2023/02/16 05:30:52;;;;;;;37.97;27.83;;;;;;;2.45;100.00;102890.09;2072342;28;20262;-65
2023/02/16 05:31:53;;;;;;;35.75;26.75;;;;;;;2.45;100.00;102895.56;2079787;28;20262;-65
2023/02/16 05:32:53;;;;;;;34.40;26.87;;;;;;;2.45;100.00;102896.38;2072113;28;20197;-65
2023/02/16 05:33:54;;;;;;;32.90;25.97;;;;;;;2.44;100.00;102894.78;2072313;28;20779;-65
2023/02/16 05:34:54;;;;;;;34.33;24.97;;;;;;;2.42;100.00;102893.50;2071883;28;20218;-65
2023/02/16 05:35:55;;;;;;;32.97;24.80;;;;;;;2.41;100.00;102897.38;2071506;28;20186;-65